Time;durP1;ratioP1;P1;durP2;ratioP2;P2;SDS_P1;SDS_P2;PMS_P1;PMS_P2;Temp;Humidity;BMP_temperature;BMP_pressure;BME280_temperature;BME280_humidity;BME280_pressure;Samples;Min_cycle;Max_cycle;Signal;HPM_P1;HPM_P2
2022/09/09 00:00:12;;;;;;;5.38;3.50;;;;;;;14.99;100.00;68434.16;5019170;28;20045;-78
2022/09/09 00:02:38;;;;;;;5.53;3.13;;;;;;;15.00;100.00;68440.09;5022210;28;20108;-78
2022/09/09 00:05:04;;;;;;;5.00;2.80;;;;;;;;;;5027869;28;20041;-79
2022/09/09 00:07:52;;;;;;;4.63;3.05;;;;;;;14.89;100.00;68422.78;5025831;28;20400;-78
2022/09/09 00:10:28;;;;;;;4.32;2.75;;;;;;;14.91;100.00;68425.06;5043098;28;20042;-78
2022/09/09 00:13:17;;;;;;;7.15;3.10;;;;;;;;;;5029148;28;20052;-78
2022/09/09 00:16:00;;;;;;;5.32;2.95;;;;;;;14.91;100.00;68424.50;5026520;28;20132;-77
2022/09/09 00:18:33;;;;;;;4.60;2.40;;;;;;;;;;5034454;28;20037;-78
2022/09/09 00:21:10;;;;;;;4.43;3.05;;;;;;;14.89;100.00;68423.34;5036673;28;20041;-78
2022/09/09 00:23:44;;;;;;;5.82;3.00;;;;;;;14.87;100.00;68421.06;5034551;28;20037;-78
2022/09/09 00:26:20;;;;;;;5.22;2.33;;;;;;;14.77;100.00;68415.03;5047793;28;20049;-78
2022/09/09 00:28:48;;;;;;;5.25;2.65;;;;;;;;;;5032389;28;20548;-77
2022/09/09 00:31:18;;;;;;;5.25;2.90;;;;;;;;;;5030731;28;20101;-78
2022/09/09 00:33:43;;;;;;;5.95;3.15;;;;;;;14.80;100.00;68407.72;5038225;28;20107;-78
2022/09/09 00:36:17;;;;;;;4.05;2.70;;;;;;;;;;5039820;28;20041;-79
2022/09/09 00:38:51;;;;;;;4.20;2.60;;;;;;;14.77;100.00;68414.47;5036287;28;20091;-77
2022/09/09 00:41:19;;;;;;;3.80;2.45;;;;;;;14.76;100.00;68413.91;5035850;28;20048;-77
2022/09/09 00:43:49;;;;;;;3.95;2.42;;;;;;;;;;5034097;28;20084;-77
2022/09/09 00:46:14;;;;;;;3.53;2.25;;;;;;;;;;5028521;28;20298;-77
2022/09/09 00:48:57;;;;;;;5.38;2.30;;;;;;;14.67;100.00;68403.66;5032354;28;20111;-78
2022/09/09 00:51:41;;;;;;;4.43;2.53;;;;;;;;;;5034072;28;20132;-79
2022/09/09 00:54:23;;;;;;;5.68;2.75;;;;;;;14.63;100.00;68393.75;5033738;28;20041;-78
2022/09/09 00:56:52;;;;;;;4.43;2.72;;;;;;;14.64;100.00;68395.47;5027602;28;20573;-78
2022/09/09 00:59:46;;;;;;;7.90;3.10;;;;;;;14.57;100.00;68395.50;5030478;28;20504;-78
2022/09/09 01:02:29;;;;;;;4.70;2.97;;;;;;;;;;5042548;28;20045;-78
2022/09/09 01:05:00;;;;;;;5.28;3.25;;;;;;;14.53;100.00;68382.34;5028075;28;20042;-78
2022/09/09 01:07:25;;;;;;;4.15;3.00;;;;;;;14.47;100.00;68376.06;5028942;28;20041;-77
2022/09/09 01:10:00;;;;;;;4.28;3.50;;;;;;;14.45;100.00;68374.38;5022014;28;20041;-78
2022/09/09 01:12:35;;;;;;;4.28;3.08;;;;;;;14.42;100.00;68370.38;5027929;28;20375;-78
2022/09/09 01:15:08;;;;;;;5.35;3.08;;;;;;;;;;5030395;28;20122;-79
2022/09/09 01:17:47;;;;;;;6.15;3.67;;;;;;;14.36;100.00;68363.56;5030497;28;20037;-78
2022/09/09 01:20:25;;;;;;;5.03;3.13;;;;;;;;;;5060649;28;20053;-77
2022/09/09 01:23:18;;;;;;;4.20;3.07;;;;;;;14.26;100.00;68352.16;5020949;28;20564;-78
2022/09/09 01:25:44;;;;;;;7.60;3.58;;;;;;;14.22;100.00;68354.13;5028409;28;20264;-78
2022/09/09 01:28:29;;;;;;;7.35;4.00;;;;;;;;;;5023861;28;20071;-78
2022/09/09 01:30:57;;;;;;;5.93;4.25;;;;;;;14.17;100.00;68347.84;5027471;28;20045;-77
2022/09/09 01:33:22;;;;;;;5.15;4.25;;;;;;;14.14;100.00;68339.66;5027497;28;20045;-77
2022/09/09 01:35:57;;;;;;;5.63;4.05;;;;;;;14.09;100.00;68333.38;5028131;28;20567;-77
2022/09/09 01:38:24;;;;;;;5.45;3.63;;;;;;;14.09;100.00;68333.38;5016301;28;20103;-78
2022/09/09 01:40:52;;;;;;;5.68;4.05;;;;;;;;;;5020068;28;20057;-76
2022/09/09 01:43:19;;;;;;;7.30;3.90;;;;;;;14.05;100.00;68334.75;5024580;28;20046;-76
2022/09/09 01:45:45;;;;;;;4.50;3.70;;;;;;;;;;5027617;28;20045;-78
2022/09/09 01:48:11;;;;;;;5.82;4.05;;;;;;;14.02;100.00;68326.00;5023901;28;20112;-78
2022/09/09 01:50:36;;;;;;;7.45;4.65;;;;;;;14.00;100.00;68324.28;5023063;28;20037;-77
2022/09/09 01:53:02;;;;;;;5.88;4.40;;;;;;;;;;5026612;28;20037;-77
2022/09/09 01:55:37;;;;;;;6.18;4.32;;;;;;;13.97;100.00;68320.88;5023712;28;20048;-76
2022/09/09 01:58:23;;;;;;;6.35;4.35;;;;;;;;;;5022131;28;20049;-78
2022/09/09 02:01:29;;;;;;;6.47;4.80;;;;;;;13.96;100.00;68319.16;5022765;28;20275;-77
2022/09/09 02:03:57;;;;;;;8.00;5.40;;;;;;;13.95;100.00;68318.03;5026947;28;20033;-77
2022/09/09 02:06:33;;;;;;;6.47;4.90;;;;;;;13.93;100.00;68315.75;5019686;28;20042;-78
2022/09/09 02:09:03;;;;;;;7.85;5.10;;;;;;;13.92;100.00;68314.59;5014681;28;20116;-78
2022/09/09 02:11:29;;;;;;;8.75;5.65;;;;;;;13.92;100.00;68319.97;5029474;28;20038;-77
2022/09/09 02:13:57;;;;;;;6.13;5.53;;;;;;;;;;5026513;28;20124;-77
2022/09/09 02:16:40;;;;;;;8.43;5.77;;;;;;;13.89;100.00;68317.13;5028238;28;20715;-77
2022/09/09 02:19:08;;;;;;;9.00;5.00;;;;;;;;;;5034329;22;21414;-87
2022/09/09 02:21:36;;;;;;;9.10;6.20;;;;;;;;;;5035075;28;20045;-88
2022/09/09 02:24:07;;;;;;;9.17;6.80;;;;;;;13.89;100.00;68311.19;5033672;28;20056;-87
2022/09/09 02:26:35;;;;;;;7.40;6.30;;;;;;;13.89;100.00;68311.19;5035340;28;20033;-89
2022/09/09 02:29:05;;;;;;;7.95;6.13;;;;;;;13.90;100.00;68317.69;5033096;28;20065;-87
2022/09/09 02:31:32;;;;;;;6.82;5.93;;;;;;;;;;5050922;28;20037;-88
2022/09/09 02:34:00;;;;;;;7.78;5.75;;;;;;;;;;5052429;28;20029;-93
2022/09/09 02:36:33;;;;;;;7.80;6.15;;;;;;;13.80;100.00;68300.97;5066998;28;20065;-90
2022/09/09 02:38:59;;;;;;;8.52;6.47;;;;;;;13.82;100.00;68303.81;5035746;28;20045;-88
2022/09/09 02:41:37;;;;;;;8.50;6.50;;;;;;;13.79;100.00;68305.19;5033787;28;20543;-88
2022/09/09 02:44:06;;;;;;;7.63;5.90;;;;;;;;;;5034099;28;20140;-89
2022/09/09 02:46:53;;;;;;;8.20;6.72;;;;;;;13.78;100.00;68304.59;5034512;28;20037;-88
2022/09/09 02:49:51;;;;;;;9.13;6.07;;;;;;;13.75;100.00;68301.78;5020647;28;20081;-88
2022/09/09 02:52:25;;;;;;;8.03;5.97;;;;;;;13.71;100.00;68296.66;5034344;28;20049;-88
2022/09/09 02:54:57;;;;;;;9.15;6.45;;;;;;;13.71;100.00;68291.84;5035978;28;20290;-88
2022/09/09 02:57:27;;;;;;;8.25;5.60;;;;;;;13.72;100.00;68298.34;5043627;28;20124;-88
2022/09/09 02:59:54;;;;;;;7.00;6.10;;;;;;;13.78;100.00;68299.25;5041692;28;20029;-88
2022/09/09 03:02:20;;;;;;;7.50;6.68;;;;;;;13.74;100.00;68295.28;5033336;28;20037;-88
2022/09/09 03:04:50;;;;;;;7.20;6.22;;;;;;;13.77;100.00;68298.69;5025525;28;20049;-88
2022/09/09 03:07:16;;;;;;;9.85;6.10;;;;;;;13.74;100.00;68292.59;5043183;28;20120;-86
2022/09/09 03:09:42;;;;;;;9.13;7.43;;;;;;;;;;5041914;28;20026;-87
2022/09/09 03:12:07;;;;;;;8.82;6.78;;;;;;;;;;5036874;28;20420;-88
2022/09/09 03:14:32;;;;;;;10.30;7.53;;;;;;;;;;5045259;28;20041;-87
2022/09/09 03:17:00;;;;;;;11.75;7.63;;;;;;;13.77;100.00;68298.69;5031724;28;20123;-89
2022/09/09 03:19:27;;;;;;;10.05;8.15;;;;;;;13.80;100.00;68298.28;5029583;28;20535;-87
2022/09/09 03:21:53;;;;;;;12.23;9.32;;;;;;;13.81;100.00;68302.09;5033305;28;20080;-87
2022/09/09 03:24:18;;;;;;;11.43;9.07;;;;;;;13.81;100.00;68302.09;5063711;28;20025;-92
2022/09/09 03:26:46;;;;;;;12.82;9.73;;;;;;;13.83;100.00;68301.69;5066622;28;20125;-92
2022/09/09 03:29:12;;;;;;;12.98;9.80;;;;;;;;;;5060083;28;20116;-90
2022/09/09 03:31:39;;;;;;;11.98;9.20;;;;;;;13.79;100.00;68305.75;5044285;28;20484;-88
2022/09/09 03:34:05;;;;;;;11.55;9.95;;;;;;;13.79;100.00;68305.19;5025068;28;20128;-88
2022/09/09 03:36:31;;;;;;;13.63;10.57;;;;;;;13.80;100.00;68300.97;5050983;28;20040;-88
2022/09/09 03:38:57;;;;;;;14.88;11.20;;;;;;;13.81;100.00;68307.44;5043858;28;20037;-88
2022/09/09 03:41:23;;;;;;;16.63;12.20;;;;;;;13.82;100.00;68303.25;5030978;28;20154;-88
2022/09/09 03:43:51;;;;;;;19.73;11.88;;;;;;;;;;5049115;28;20488;-88
2022/09/09 03:46:18;;;;;;;17.85;11.68;;;;;;;13.85;100.00;68312.00;5039826;28;20072;-88
2022/09/09 03:48:45;;;;;;;18.60;13.80;;;;;;;13.86;100.00;68313.13;5034679;28;20041;-87
2022/09/09 03:51:11;;;;;;;17.42;13.05;;;;;;;13.88;100.00;68310.63;5048681;28;20371;-91
2022/09/09 03:53:37;;;;;;;19.65;13.60;;;;;;;;;;5047933;28;20154;-88
2022/09/09 03:56:06;;;;;;;16.63;14.23;;;;;;;13.92;100.00;68319.97;5030526;28;20057;-88
2022/09/09 03:58:32;;;;;;;19.45;13.43;;;;;;;13.89;100.00;68311.75;5031750;28;20048;-87
2022/09/09 04:01:04;;;;;;;18.60;15.32;;;;;;;13.91;100.00;68318.84;5027133;28;20300;-89
2022/09/09 04:03:30;;;;;;;20.85;14.25;;;;;;;13.90;100.00;68312.91;5039172;28;20065;-88
2022/09/09 04:05:58;;;;;;;19.60;14.38;;;;;;;13.88;100.00;68315.97;5033803;28;20479;-88
2022/09/09 04:08:26;;;;;;;18.73;14.82;;;;;;;;;;5033038;28;20038;-87
2022/09/09 04:10:52;;;;;;;18.88;14.95;;;;;;;13.92;100.00;68320.53;5025579;28;20034;-87
2022/09/09 04:13:19;;;;;;;19.17;14.75;;;;;;;13.91;100.00;68319.41;5030314;28;20049;-88
2022/09/09 04:15:49;;;;;;;19.38;16.10;;;;;;;;;;5033908;28;20056;-89
2022/09/09 04:18:15;;;;;;;16.70;14.80;;;;;;;;;;5033792;28;20041;-88
2022/09/09 04:20:40;;;;;;;21.35;13.65;;;;;;;13.85;100.00;68306.66;5041982;28;20137;-88
2022/09/09 04:23:05;;;;;;;21.17;15.85;;;;;;;13.86;100.00;68307.78;5037768;28;20053;-87
2022/09/09 04:25:31;;;;;;;18.40;15.82;;;;;;;13.87;100.00;68309.50;5032723;28;20302;-88
2022/09/09 04:27:57;;;;;;;17.67;15.15;;;;;;;;;;5041332;28;20121;-89
2022/09/09 04:30:23;;;;;;;19.88;16.05;;;;;;;13.85;100.00;68312.00;5027847;28;20040;-87
2022/09/09 04:32:49;;;;;;;21.02;15.60;;;;;;;13.83;100.00;68304.38;5040335;28;20279;-87
2022/09/09 04:35:19;;;;;;;20.45;14.80;;;;;;;13.81;100.00;68308.03;5029647;28;20071;-88
2022/09/09 04:37:45;;;;;;;19.95;15.55;;;;;;;13.84;100.00;68305.50;5030231;28;20243;-89
2022/09/09 04:40:10;;;;;;;18.30;14.43;;;;;;;;;;5044208;28;20049;-89
2022/09/09 04:42:36;;;;;;;20.45;14.95;;;;;;;13.83;100.00;68301.69;5049520;28;20053;-88
2022/09/09 04:45:02;;;;;;;21.75;14.88;;;;;;;13.84;100.00;68306.09;5032787;28;20049;-89
2022/09/09 04:47:28;;;;;;;18.65;14.90;;;;;;;;;;5028228;28;20136;-89
2022/09/09 04:49:54;;;;;;;17.98;14.63;;;;;;;13.88;100.00;68310.06;5036875;28;20128;-89
2022/09/09 04:52:20;;;;;;;19.48;13.48;;;;;;;13.91;100.00;68313.47;5041543;28;20049;-88
2022/09/09 04:54:45;;;;;;;20.45;13.40;;;;;;;;;;5049685;28;20064;-88
2022/09/09 04:57:11;;;;;;;20.27;12.93;;;;;;;13.91;100.00;68311.38;5036578;28;20095;-87
2022/09/09 04:59:39;;;;;;;16.20;12.77;;;;;;;13.96;100.00;68324.53;5042330;28;20504;-87
2022/09/09 05:02:04;;;;;;;17.20;14.05;;;;;;;14.00;100.00;68323.72;5039121;28;20055;-88
2022/09/09 05:04:30;;;;;;;17.65;13.95;;;;;;;;;;5039176;28;20040;-89
2022/09/09 05:06:56;;;;;;;19.40;14.13;;;;;;;13.99;100.00;68322.59;5043374;28;20040;-87
2022/09/09 05:09:21;;;;;;;19.00;12.93;;;;;;;14.03;100.00;68326.56;5036991;28;20283;-87
2022/09/09 05:11:46;;;;;;;18.40;12.77;;;;;;;;;;5033495;28;20048;-87
2022/09/09 05:14:12;;;;;;;18.48;13.18;;;;;;;14.04;100.00;68328.28;5033577;28;20116;-87
2022/09/09 05:16:37;;;;;;;15.85;13.52;;;;;;;;;;5038973;28;20037;-87
2022/09/09 05:19:03;;;;;;;17.42;13.10;;;;;;;14.10;100.00;68335.09;5035260;28;20057;-86
2022/09/09 05:21:30;;;;;;;15.07;12.32;;;;;;;14.10;100.00;68340.47;5047923;28;20049;-87
2022/09/09 05:23:55;;;;;;;16.83;13.15;;;;;;;14.11;100.00;68344.25;5056790;28;20388;-87
2022/09/09 05:26:22;;;;;;;14.05;11.60;;;;;;;14.16;100.00;68341.38;5028705;28;20040;-90
2022/09/09 05:28:48;;;;;;;14.48;11.00;;;;;;;14.21;100.00;68352.97;5039025;28;20056;-88
2022/09/09 05:31:16;;;;;;;17.08;11.35;;;;;;;14.25;100.00;68351.59;5041345;28;20045;-87
2022/09/09 05:33:45;;;;;;;17.77;11.45;;;;;;;14.24;100.00;68355.81;5033621;28;20046;-88
2022/09/09 05:36:13;;;;;;;17.90;11.70;;;;;;;14.27;100.00;68353.31;5047529;28;20075;-88
2022/09/09 05:38:40;;;;;;;16.60;10.20;;;;;;;14.28;100.00;68354.44;5046003;28;20135;-87
2022/09/09 05:41:06;;;;;;;16.67;10.23;;;;;;;;;;5044359;28;20052;-88
2022/09/09 05:43:32;;;;;;;14.30;9.68;;;;;;;;;;5048063;28;20049;-89
2022/09/09 05:46:01;;;;;;;15.68;9.00;;;;;;;;;;5046378;28;20421;-89
2022/09/09 05:48:34;;;;;;;;;;;;;;;14.43;100.00;68372.09;5048352;28;20470;-87
2022/09/09 05:51:00;;;;;;;15.07;8.68;;;;;;;14.40;100.00;68373.47;5047277;28;20294;-87
2022/09/09 05:53:26;;;;;;;11.98;8.75;;;;;;;14.44;100.00;68372.66;5042097;28;20037;-88
2022/09/09 05:56:12;;;;;;;11.65;8.13;;;;;;;14.50;100.00;68384.84;5042011;28;20036;-88
2022/09/09 05:58:38;;;;;;;14.77;8.40;;;;;;;14.55;100.00;68385.19;5052176;28;20041;-88
2022/09/09 06:01:10;;;;;;;10.52;7.38;;;;;;;14.58;100.00;68388.03;5035547;28;20734;-87
2022/09/09 06:03:36;;;;;;;10.30;7.10;;;;;;;14.63;100.00;68394.31;5027822;28;20045;-88
2022/09/09 06:06:08;;;;;;;9.13;6.47;;;;;;;14.65;100.00;68401.94;5027978;28;20046;-86
2022/09/09 06:08:36;;;;;;;11.27;7.38;;;;;;;14.71;100.00;68399.59;5041629;28;20056;-87
2022/09/09 06:11:10;;;;;;;10.23;5.82;;;;;;;;;;5034423;28;20136;-87
2022/09/09 06:13:38;;;;;;;10.95;6.10;;;;;;;;;;5036946;28;20060;-87
2022/09/09 06:16:04;;;;;;;14.00;6.60;;;;;;;14.81;100.00;68413.66;5044462;28;20069;-87
2022/09/09 06:18:30;;;;;;;12.82;6.05;;;;;;;;;;5020783;28;20593;-87
2022/09/09 06:21:01;;;;;;;10.73;6.10;;;;;;;14.89;100.00;68423.34;5045798;28;20049;-88
2022/09/09 06:23:27;;;;;;;10.02;5.57;;;;;;;14.95;100.00;68429.59;5039290;28;20072;-86
2022/09/09 06:26:09;;;;;;;10.70;5.97;;;;;;;14.98;100.00;68432.44;5041180;28;20047;-87
2022/09/09 06:28:35;;;;;;;8.70;5.88;;;;;;;15.01;100.00;68433.75;5051955;28;20045;-86
2022/09/09 06:31:01;;;;;;;10.80;5.40;;;;;;;;;;5047042;28;20135;-85
2022/09/09 06:33:30;;;;;;;12.05;5.47;;;;;;;15.09;100.00;68442.28;5033596;28;20523;-86
2022/09/09 06:35:56;;;;;;;10.93;5.30;;;;;;;15.11;100.00;68447.81;5035730;28;20038;-85
2022/09/09 06:38:22;;;;;;;8.48;5.15;;;;;;;15.14;100.00;68450.13;5048186;28;20052;-85
2022/09/09 06:40:55;;;;;;;11.40;5.00;;;;;;;15.16;100.00;68452.38;5043616;28;20041;-85
2022/09/09 06:43:22;;;;;;;11.60;5.47;;;;;;;15.23;100.00;68457.69;5032953;28;20041;-87
2022/09/09 06:45:54;;;;;;;12.32;4.80;;;;;;;;;;5053373;28;20044;-85
2022/09/09 06:48:19;;;;;;;8.45;4.63;;;;;;;15.29;100.00;68467.75;5043610;28;20045;-87
2022/09/09 06:50:44;;;;;;;11.43;5.00;;;;;;;15.34;100.00;68472.88;5039480;28;20102;-87
2022/09/09 06:53:10;;;;;;;8.23;4.97;;;;;;;15.35;100.00;68471.91;5046771;28;20528;-86
2022/09/09 06:55:35;;;;;;;11.20;4.30;;;;;;;;;;5045619;28;20048;-88
2022/09/09 06:58:01;;;;;;;9.45;4.78;;;;;;;15.47;100.00;68487.69;5041329;28;20506;-85
2022/09/09 07:00:26;;;;;;;9.15;4.43;;;;;;;15.60;100.00;68501.38;5041550;28;20045;-86
2022/09/09 07:02:52;;;;;;;10.77;4.45;;;;;;;15.63;100.00;68504.78;5035425;28;20457;-87
2022/09/09 07:05:17;;;;;;;8.48;4.43;;;;;;;15.73;100.00;68513.50;5034882;28;20416;-85
2022/09/09 07:07:42;;;;;;;8.43;4.65;;;;;;;;;;5042690;28;20036;-86
2022/09/09 07:10:08;;;;;;;9.48;4.22;;;;;;;15.87;100.00;68537.50;5038902;28;20116;-86
2022/09/09 07:12:33;;;;;;;8.15;4.35;;;;;;;15.97;100.00;68543.56;5032805;28;20083;-87
2022/09/09 07:14:59;;;;;;;9.00;4.30;;;;;;;15.98;100.00;68544.69;5039382;28;20814;-87
2022/09/09 07:17:24;;;;;;;9.20;4.80;;;;;;;;;;5045102;28;20073;-86
2022/09/09 07:19:49;;;;;;;9.32;4.07;;;;;;;16.08;100.00;68560.31;5055352;28;20486;-86
2022/09/09 07:22:15;;;;;;;7.93;4.00;;;;;;;;;;5041335;28;20041;-86
2022/09/09 07:24:41;;;;;;;6.68;4.28;;;;;;;16.13;100.00;68558.53;5040674;28;20049;-86
2022/09/09 07:27:06;;;;;;;10.32;3.60;;;;;;;;;;5044301;28;20060;-88
2022/09/09 07:29:31;;;;;;;9.32;3.58;;;;;;;;;;5034989;28;20128;-86
2022/09/09 07:31:58;;;;;;;7.93;3.92;;;;;;;;;;5041138;28;20415;-86
2022/09/09 07:34:23;;;;;;;8.68;3.53;;;;;;;16.23;100.00;68572.63;5045207;28;20483;-86
2022/09/09 07:36:48;;;;;;;8.57;3.22;;;;;;;;;;5048207;28;20040;-86
2022/09/09 07:39:14;;;;;;;9.18;3.33;;;;;;;;;;5048148;28;20102;-87
2022/09/09 07:41:45;;;;;;;7.60;3.47;;;;;;;16.34;100.00;68584.00;5038877;28;20072;-85
2022/09/09 07:44:15;;;;;;;6.72;2.78;;;;;;;16.37;100.00;68585.31;5048918;28;20040;-84
2022/09/09 07:46:41;;;;;;;7.35;3.20;;;;;;;16.46;100.00;68603.63;5041407;28;20041;-86
2022/09/09 07:49:08;;;;;;;9.82;3.40;;;;;;;16.50;100.00;68607.63;5034760;28;20057;-87
2022/09/09 07:51:36;;;;;;;8.88;3.20;;;;;;;16.50;100.00;68602.25;5043810;28;20045;-87
2022/09/09 07:54:04;;;;;;;5.65;3.08;;;;;;;16.58;100.00;68610.81;5045355;28;20086;-86
2022/09/09 07:56:31;;;;;;;6.63;2.65;;;;;;;16.61;100.00;68614.78;5037777;28;20048;-87
2022/09/09 07:58:58;;;;;;;9.60;3.30;;;;;;;16.66;100.00;68617.81;5047890;28;20059;-86
2022/09/09 08:01:26;;;;;;;11.02;3.03;;;;;;;;;;5041011;28;20419;-87
2022/09/09 08:03:59;;;;;;;10.05;3.33;;;;;;;16.72;100.00;68626.22;5045177;28;20664;-87
2022/09/09 08:06:26;;;;;;;8.65;2.90;;;;;;;16.75;100.00;68635.56;5036425;28;20136;-87
2022/09/09 08:08:53;;;;;;;8.45;3.45;;;;;;;16.79;100.00;68634.19;5030739;28;20041;-87
2022/09/09 08:11:18;;;;;;;9.23;3.38;;;;;;;16.83;100.00;68636.66;5023689;28;20132;-86
2022/09/09 08:13:44;;;;;;;7.75;3.15;;;;;;;;;;5036760;28;20128;-87
2022/09/09 08:16:12;;;;;;;8.02;2.85;;;;;;;16.83;100.00;68636.66;5047160;28;20037;-86
2022/09/09 08:18:38;;;;;;;8.60;2.95;;;;;;;;;;5045329;28;20416;-87
2022/09/09 08:21:11;;;;;;;6.85;3.20;;;;;;;16.85;100.00;68638.91;5043531;28;20048;-88
2022/09/09 08:23:39;;;;;;;8.52;2.70;;;;;;;16.90;100.00;68647.31;5042302;28;20570;-88
2022/09/09 08:26:07;;;;;;;7.30;2.38;;;;;;;16.90;99.50;68647.31;5045431;28;20578;-88
2022/09/09 08:28:32;;;;;;;10.43;2.90;;;;;;;;;;5045279;28;20044;-87
2022/09/09 08:31:08;;;;;;;8.75;2.72;;;;;;;17.13;97.58;68672.97;5020758;28;20037;-87
2022/09/09 08:33:33;;;;;;;9.13;2.28;;;;;;;17.20;97.31;68685.75;5036422;28;20531;-88
2022/09/09 08:35:58;;;;;;;8.68;2.60;;;;;;;;;;5048487;28;20037;-87
2022/09/09 08:38:24;;;;;;;11.68;3.08;;;;;;;17.29;97.08;68695.47;5043901;28;20037;-86
2022/09/09 08:40:59;;;;;;;8.10;2.47;;;;;;;17.33;95.38;68689.28;5040140;28;20119;-86
2022/09/09 08:43:27;;;;;;;10.00;2.65;;;;;;;17.38;95.38;68700.38;5043554;28;20099;-87
2022/09/09 08:46:06;;;;;;;9.35;2.13;;;;;;;17.32;93.14;68694.09;5035858;28;20107;-87
2022/09/09 08:49:00;;;;;;;6.85;2.05;;;;;;;17.36;93.34;68695.94;5044983;28;20051;-88
2022/09/09 08:51:30;;;;;;;11.07;2.22;;;;;;;17.36;93.16;68704.03;5004467;28;20044;-87
2022/09/09 08:53:59;;;;;;;10.45;1.90;;;;;;;17.36;92.40;68698.63;5047032;28;20057;-87
2022/09/09 08:56:26;;;;;;;9.40;1.98;;;;;;;;;;5035746;28;20037;-88
2022/09/09 08:58:53;;;;;;;7.72;1.80;;;;;;;17.59;91.30;68729.69;5032515;28;20055;-87
2022/09/09 09:01:34;;;;;;;5.57;1.40;;;;;;;17.68;87.80;68733.44;5040580;28;20072;-87
2022/09/09 09:04:10;;;;;;;6.35;2.17;;;;;;;;;;5043784;28;20083;-88
2022/09/09 09:06:57;;;;;;;5.65;2.00;;;;;;;17.89;87.29;68757.44;5030800;28;20560;-88
2022/09/09 09:09:22;;;;;;;5.72;1.58;;;;;;;;;;5003420;28;20049;-87
2022/09/09 09:11:51;;;;;;;4.82;1.55;;;;;;;17.90;84.35;68755.31;5033961;28;20525;-87
2022/09/09 09:14:21;;;;;;;;;;;;;;;18.04;84.24;68779.38;5032015;28;20138;-87
2022/09/09 09:17:06;;;;;;;8.55;1.70;;;;;;;18.08;84.13;68770.47;5035107;28;19912;-87
2022/09/09 09:19:35;;;;;;;7.60;1.88;;;;;;;18.19;84.38;68796.50;5046979;28;20053;-87
2022/09/09 09:22:08;;;;;;;7.60;2.42;;;;;;;18.24;83.53;68794.13;5043709;28;20432;-86
2022/09/09 09:24:42;;;;;;;5.22;1.60;;;;;;;;;;5029741;28;20041;-87
2022/09/09 09:27:18;;;;;;;7.43;2.17;;;;;;;18.42;82.56;68808.13;5035037;28;20607;-87
2022/09/09 09:29:44;;;;;;;6.80;1.80;;;;;;;18.41;82.83;68815.66;5043409;28;20135;-87
2022/09/09 09:32:18;;;;;;;4.35;1.45;;;;;;;18.38;81.56;68809.53;5041098;28;20047;-87
2022/09/09 09:34:49;;;;;;;4.40;1.65;;;;;;;18.38;82.68;68811.66;5042635;28;20087;-87
2022/09/09 09:37:21;;;;;;;9.57;1.60;;;;;;;18.40;82.89;68808.53;5063341;28;20102;-87
2022/09/09 09:39:48;;;;;;;7.95;1.50;;;;;;;;;;5047844;28;20060;-86
2022/09/09 09:42:17;;;;;;;6.45;1.67;;;;;;;18.42;83.02;68816.22;5046829;28;20040;-87
2022/09/09 09:44:42;;;;;;;;;;;;;;;18.53;81.46;68828.19;5049011;28;20032;-87
2022/09/09 09:47:08;;;;;;;5.13;1.42;;;;;;;18.43;81.44;68814.66;5048105;28;20019;-87
2022/09/09 09:49:33;;;;;;;5.57;1.63;;;;;;;18.43;80.60;68817.38;5037213;28;20049;-87
2022/09/09 09:52:07;;;;;;;6.72;1.50;;;;;;;18.47;81.09;68814.41;5048219;28;20048;-87
2022/09/09 09:54:42;;;;;;;6.25;1.48;;;;;;;18.47;79.99;68819.22;5040725;28;20033;-88
2022/09/09 09:57:16;;;;;;;5.03;1.67;;;;;;;18.55;80.36;68828.38;5041883;28;20055;-88
2022/09/09 09:59:42;;;;;;;5.45;1.75;;;;;;;18.55;80.01;68828.38;5042841;28;20087;-87
2022/09/09 10:02:26;;;;;;;7.40;1.85;;;;;;;18.52;80.03;68827.63;5036423;28;20041;-87
2022/09/09 10:05:08;;;;;;;5.20;1.08;;;;;;;18.44;79.82;68818.50;5024956;28;20044;-87
2022/09/09 10:07:33;;;;;;;5.50;1.50;;;;;;;18.50;79.20;68825.38;5031587;28;20136;-87
2022/09/09 10:09:59;;;;;;;5.32;1.23;;;;;;;;;;5029811;28;20120;-86
2022/09/09 10:12:25;;;;;;;7.03;1.73;;;;;;;18.54;78.16;68829.34;5043434;28;20045;-87
2022/09/09 10:15:00;;;;;;;6.75;1.30;;;;;;;18.55;77.51;68830.50;5046114;28;20041;-86
2022/09/09 10:17:47;;;;;;;4.80;1.42;;;;;;;;;;5047640;28;20062;-86
2022/09/09 10:20:19;;;;;;;6.00;1.20;;;;;;;18.59;76.86;68835.63;5033016;28;20045;-88
2022/09/09 10:22:51;;;;;;;5.57;1.17;;;;;;;18.74;77.61;68852.22;5027646;28;20044;-87
2022/09/09 10:25:32;;;;;;;5.30;1.15;;;;;;;18.86;76.71;68865.34;5041785;28;20048;-88
2022/09/09 10:28:25;;;;;;;7.43;1.30;;;;;;;18.91;76.57;68871.06;5029700;28;20037;-88
2022/09/09 10:31:08;;;;;;;5.30;1.38;;;;;;;19.03;76.52;68884.75;5029935;28;20032;-88
2022/09/09 10:34:20;;;;;;;5.30;1.25;;;;;;;19.16;75.75;68896.94;5011735;28;20064;-88
2022/09/09 10:36:49;;;;;;;6.50;1.85;;;;;;;19.29;76.40;68908.50;5019988;28;20511;-88
2022/09/09 10:39:32;;;;;;;3.75;0.93;;;;;;;19.45;75.15;68928.31;5031820;28;20061;-88
2022/09/09 10:42:05;;;;;;;3.58;1.10;;;;;;;19.62;75.07;68947.75;5040684;28;20073;-87
2022/09/09 10:44:46;;;;;;;7.95;1.13;;;;;;;19.79;72.24;68967.22;5038925;28;20048;-88
2022/09/09 10:47:29;;;;;;;4.53;1.30;;;;;;;19.71;72.65;68955.38;5044422;28;20531;-87
2022/09/09 10:49:57;;;;;;;4.35;0.93;;;;;;;;;;5037265;28;20068;-88
2022/09/09 10:52:32;;;;;;;4.30;1.20;;;;;;;19.39;72.16;68925.31;5034299;28;20045;-89
2022/09/09 10:55:12;;;;;;;6.45;1.40;;;;;;;19.46;72.49;68930.06;5043285;28;20781;-87
2022/09/09 10:57:52;;;;;;;5.50;1.00;;;;;;;19.55;71.52;68942.47;5037457;28;20496;-88
2022/09/09 11:03:41;;;;;;;6.47;1.27;;;;;;;19.51;72.54;68937.91;5163307;22;20136;-78
2022/09/09 11:06:17;;;;;;;5.95;0.90;;;;;;;19.50;70.96;68936.75;5008912;28;20041;-79
2022/09/09 11:08:42;;;;;;;4.35;1.30;;;;;;;19.55;71.39;68942.47;5013975;28;20046;-80
2022/09/09 11:11:16;;;;;;;5.25;1.02;;;;;;;19.57;70.70;68939.91;5011261;28;20122;-79
2022/09/09 11:13:51;;;;;;;7.50;1.20;;;;;;;19.58;71.61;68943.19;5016432;28;20061;-81
2022/09/09 11:16:25;;;;;;;4.55;1.02;;;;;;;19.53;71.95;68940.75;5016980;28;20042;-79
2022/09/09 11:18:58;;;;;;;4.82;1.80;;;;;;;19.53;72.68;68937.47;5015624;28;20033;-78
2022/09/09 11:21:31;;;;;;;3.25;1.40;;;;;;;19.52;71.74;68936.34;5016085;28;20505;-78
2022/09/09 11:24:04;;;;;;;5.55;1.13;;;;;;;19.43;72.17;68929.31;5013358;28;20049;-78
2022/09/09 11:26:35;;;;;;;5.00;1.05;;;;;;;;;;5011210;28;20053;-79
2022/09/09 11:29:14;;;;;;;5.30;1.40;;;;;;;19.53;72.44;68940.75;5006450;28;20582;-77
2022/09/09 11:32:10;;;;;;;5.85;1.00;;;;;;;19.58;72.37;68943.75;5013196;28;20046;-79
2022/09/09 11:34:39;;;;;;;5.65;1.23;;;;;;;;;;5005456;28;20077;-79
2022/09/09 11:37:17;;;;;;;5.97;1.27;;;;;;;19.44;70.71;68929.88;5002163;28;20612;-80
2022/09/09 11:39:50;;;;;;;6.57;1.60;;;;;;;19.45;72.42;68931.03;5001605;28;20119;-80
2022/09/09 11:42:22;;;;;;;4.18;1.20;;;;;;;19.42;72.36;68924.91;4998214;28;20106;-79
2022/09/09 11:44:47;;;;;;;5.50;1.10;;;;;;;19.38;71.27;68923.59;4998409;28;20045;-79
2022/09/09 11:47:23;;;;;;;3.95;1.02;;;;;;;19.35;71.72;68914.78;5010770;28;20050;-77
2022/09/09 11:49:48;;;;;;;5.57;1.25;;;;;;;19.36;72.86;68921.31;5010243;28;20048;-80
2022/09/09 11:52:36;;;;;;;3.75;0.80;;;;;;;19.31;73.43;68913.50;5010994;28;20050;-78
2022/09/09 11:55:30;;;;;;;4.20;1.05;;;;;;;19.15;73.89;68898.47;5008926;28;20088;-78
2022/09/09 11:58:05;;;;;;;4.45;1.10;;;;;;;19.08;74.49;68890.47;5011872;28;20484;-79
2022/09/09 12:00:41;;;;;;;4.22;1.20;;;;;;;19.02;74.86;68880.94;5016729;28;20203;-78
2022/09/09 12:03:35;;;;;;;6.47;1.70;;;;;;;19.10;75.53;68892.78;5016151;28;20128;-78
2022/09/09 12:06:15;;;;;;;4.40;1.20;;;;;;;19.17;75.57;68900.75;5015252;28;20095;-78
2022/09/09 12:08:51;;;;;;;4.70;1.02;;;;;;;19.23;75.58;68907.03;5015083;28;20037;-78
2022/09/09 12:11:27;;;;;;;3.70;0.90;;;;;;;19.27;74.40;68911.03;5015040;28;20404;-77
2022/09/09 12:13:56;;;;;;;5.47;1.15;;;;;;;;;;5006530;28;20199;-77
2022/09/09 12:16:34;;;;;;;4.75;1.00;;;;;;;;;;5002281;28;20416;-78
2022/09/09 12:19:04;;;;;;;7.05;1.30;;;;;;;19.19;74.73;68901.91;4999910;28;20038;-79
2022/09/09 12:21:49;;;;;;;5.90;1.20;;;;;;;19.15;74.49;68895.19;5012462;28;20101;-79
2022/09/09 12:24:44;;;;;;;5.60;1.20;;;;;;;19.10;74.06;68887.38;5004400;28;20045;-78